Punta del Este International Airport

Current Flights

Departures
Number Departure To Airline
 AR2349 12:15  Buenos Aires  Austral Líneas Aéreas
Arrivals
Number Arrival From Airline
 AR2348 11:35  Buenos Aires  Austral Líneas Aéreas
Info
Name: Punta del Este International Airport
Identifier:  PDP/SULS
Local Time:  20. May 12:05
City
Punta del Este
  Uruguay

Flights per Day
1 flights
Distance: 670km (416mi)
Punctuality
80% (0 flights per day delayed)
Delay Average: 54 minutes
Current Weather
 17 C (Humidity: 77%)
  7kt (12km/h / 8mph) from 110°
  Broken clouds at 1,500 feet (457 meter)
  9km (6 mi.)
 METAR SULS 201400Z 11007KT 9999 BKN015 17/13 Q1019

Current Delays

Departures
N/A
Arrivals
N/A

Destinations

Top Destinations
Airport Flights
per week
Seats
per week
  Buenos Aires (AEP) 7 1,323 1 189
  Sao Paulo (GRU) <1 728 0 104

Airlines & Planes

Top Airlines
Airline Flights
per Day
Seats
per Day
  Austral Líneas Aéreas 1 121
  LATAM Airlines Brasil <1 104
  Aerolineas Argentinas <1 67
  LATAM Airlines Argentina <1 -
Top Plane Types
Manufacturer Model Flights Seats
Embraer E190 1.3/day 121/day 121.6
Airbus A320 0.6/day 104/day 104
Boeing B737-800 0.4/day 67/day 67.46666666666667